createdAt,value
2018-04-30T00:01:14.653Z,46.10
2018-04-30T00:03:42.235Z,39.83
2018-04-30T00:06:09.682Z,41.40
2018-04-30T00:08:37.142Z,46.30
2018-04-30T00:11:04.595Z,50.67
2018-04-30T00:13:32.050Z,51.63
2018-04-30T00:15:59.520Z,43.10
2018-04-30T00:18:26.967Z,50.27
2018-04-30T00:20:54.414Z,44.47
2018-04-30T00:23:21.875Z,46.27
2018-04-30T00:25:49.339Z,52.27
2018-04-30T00:28:16.799Z,46.47
2018-04-30T00:30:44.246Z,44.90
2018-04-30T00:33:11.715Z,42.73
2018-04-30T00:35:39.161Z,47.70
2018-04-30T00:38:07.384Z,34.57
2018-04-30T00:40:34.837Z,43.00
2018-04-30T00:43:02.849Z,44.30
2018-04-30T00:45:30.395Z,42.20
2018-04-30T00:47:57.955Z,43.90
2018-04-30T00:50:25.436Z,39.40
2018-04-30T00:52:52.897Z,47.53
2018-04-30T00:55:20.343Z,43.20
2018-04-30T00:57:47.786Z,46.57
2018-04-30T01:00:15.280Z,46.70
2018-04-30T01:02:42.726Z,44.83
2018-04-30T01:05:10.182Z,39.97
2018-04-30T01:07:37.631Z,36.63
2018-04-30T01:10:05.106Z,38.10
2018-04-30T01:12:32.636Z,39.40
2018-04-30T01:15:00.071Z,42.87
2018-04-30T01:17:28.315Z,35.30
2018-04-30T01:19:55.862Z,45.30
2018-04-30T01:22:23.302Z,41.20
2018-04-30T01:24:50.764Z,40.90
2018-04-30T01:27:18.211Z,35.47
2018-04-30T01:29:45.695Z,42.17
2018-04-30T01:32:13.166Z,36.60
2018-04-30T01:34:40.627Z,37.50
2018-04-30T01:37:08.103Z,39.43
2018-04-30T01:39:35.675Z,36.10
2018-04-30T01:42:03.246Z,37.90
2018-04-30T01:44:31.578Z,33.83
2018-04-30T01:46:59.082Z,39.50
2018-04-30T01:49:26.538Z,39.10
2018-04-30T01:51:53.975Z,40.70
2018-04-30T01:54:21.431Z,40.80
2018-04-30T01:56:48.911Z,34.67
2018-04-30T01:59:16.383Z,38.70
2018-04-30T02:01:43.858Z,38.93
2018-04-30T02:04:11.408Z,40.50
2018-04-30T02:06:39.682Z,36.90
2018-04-30T02:09:07.129Z,35.90
2018-04-30T02:11:34.635Z,37.30
2018-04-30T02:14:02.085Z,36.87
2018-04-30T02:16:29.534Z,37.97
2018-04-30T02:18:57.062Z,34.47
2018-04-30T02:21:24.500Z,36.40
2018-04-30T02:23:52.731Z,36.23
2018-04-30T02:26:20.192Z,36.07
2018-04-30T02:28:47.626Z,38.30
2018-04-30T02:31:15.119Z,39.27
2018-04-30T02:33:42.659Z,41.20
2018-04-30T02:36:10.028Z,37.03
2018-04-30T02:38:37.485Z,41.43
2018-04-30T02:41:04.971Z,34.83
2018-04-30T02:43:32.415Z,38.83
2018-04-30T02:45:59.888Z,34.57
2018-04-30T02:48:27.487Z,38.67
2018-04-30T02:50:54.926Z,36.47
2018-04-30T02:53:23.912Z,36.77
2018-04-30T02:55:51.373Z,35.97
2018-04-30T02:58:18.815Z,42.67
2018-04-30T03:00:46.271Z,36.17
2018-04-30T03:03:13.727Z,37.73
2018-04-30T03:05:41.170Z,39.50
2018-04-30T03:08:08.610Z,38.30
2018-04-30T03:10:36.842Z,40.57
2018-04-30T03:13:04.287Z,41.43
2018-04-30T03:15:31.779Z,42.07
2018-04-30T03:17:59.222Z,40.03
2018-04-30T03:20:26.694Z,40.67
2018-04-30T03:22:54.138Z,39.17
2018-04-30T03:25:21.588Z,40.73
2018-04-30T03:27:49.050Z,41.53
2018-04-30T03:30:16.565Z,41.50
2018-04-30T03:32:44.002Z,38.33
2018-04-30T03:35:11.456Z,45.97
2018-04-30T03:37:38.903Z,43.93
2018-04-30T03:40:06.350Z,42.33
2018-04-30T03:42:33.856Z,40.00
2018-04-30T03:45:01.307Z,37.50
2018-04-30T03:47:28.751Z,43.30
2018-04-30T03:49:56.208Z,38.90
2018-04-30T03:52:23.699Z,41.97
2018-04-30T03:54:51.177Z,41.90
2018-04-30T03:57:18.672Z,43.73
2018-04-30T03:59:46.887Z,42.93
2018-04-30T04:02:26.239Z,42.00
2018-04-30T04:05:05.667Z,43.63
2018-04-30T04:07:33.124Z,42.20
2018-04-30T04:10:00.567Z,43.77
2018-04-30T04:12:28.018Z,45.30
2018-04-30T04:14:55.511Z,45.27
2018-04-30T04:17:23.079Z,45.07
2018-04-30T04:19:50.580Z,48.03
2018-04-30T04:22:18.114Z,45.23
2018-04-30T04:24:45.635Z,47.90
2018-04-30T04:27:13.127Z,47.77
2018-04-30T04:29:40.566Z,53.57
2018-04-30T04:32:08.045Z,46.10
2018-04-30T04:34:35.478Z,51.03
2018-04-30T04:37:02.942Z,52.70
2018-04-30T04:39:30.503Z,53.57
2018-04-30T04:41:57.986Z,57.50
2018-04-30T04:44:25.431Z,55.90
2018-04-30T04:46:52.914Z,62.80
2018-04-30T04:49:20.362Z,71.10
2018-04-30T04:51:47.810Z,68.13
2018-04-30T04:54:15.244Z,78.43
2018-04-30T04:56:43.467Z,76.33
2018-04-30T04:59:11.039Z,77.50
2018-04-30T05:01:38.492Z,75.57
2018-04-30T05:04:05.934Z,82.73
2018-04-30T05:06:33.418Z,77.53
2018-04-30T05:09:00.872Z,86.33
2018-04-30T05:11:28.451Z,75.40
2018-04-30T05:13:55.910Z,80.70
2018-04-30T05:16:23.374Z,85.80
2018-04-30T05:18:50.820Z,98.27
2018-04-30T05:21:18.278Z,101.60
2018-04-30T05:23:45.878Z,100.63
2018-04-30T05:26:13.330Z,94.47
2018-04-30T05:28:40.782Z,90.63
2018-04-30T05:31:08.351Z,103.53
2018-04-30T05:33:35.792Z,91.67
2018-04-30T05:36:03.266Z,97.03
2018-04-30T05:38:30.736Z,99.80
2018-04-30T05:40:58.192Z,102.03
2018-04-30T05:43:25.655Z,98.43
2018-04-30T05:45:53.114Z,98.17
2018-04-30T05:48:20.564Z,89.47
2018-04-30T05:50:48.042Z,91.77
2018-04-30T05:53:15.495Z,79.30
2018-04-30T05:55:43.051Z,73.30
2018-04-30T05:58:10.543Z,78.80
2018-04-30T06:00:38.880Z,83.83
2018-04-30T06:03:06.345Z,72.33
2018-04-30T06:05:33.794Z,60.73
2018-04-30T06:08:01.294Z,58.17
2018-04-30T06:10:28.743Z,51.43
2018-04-30T06:12:56.227Z,49.30
2018-04-30T06:15:23.779Z,43.40
2018-04-30T06:17:51.317Z,41.77
2018-04-30T06:20:18.807Z,37.83
2018-04-30T06:22:46.262Z,37.53
2018-04-30T06:25:13.706Z,35.10
2018-04-30T06:27:41.150Z,32.17
2018-04-30T06:30:08.650Z,28.63
2018-04-30T06:32:36.098Z,25.63
2018-04-30T06:35:03.634Z,27.00
2018-04-30T06:37:31.142Z,26.70
2018-04-30T06:39:58.588Z,28.00
2018-04-30T06:42:26.057Z,29.03
2018-04-30T06:44:53.507Z,28.83
2018-04-30T06:47:20.963Z,22.20
2018-04-30T06:49:48.494Z,20.43
2018-04-30T06:52:16.700Z,20.40
2018-04-30T06:54:44.162Z,16.10
2018-04-30T06:57:11.645Z,14.33
2018-04-30T06:59:39.209Z,14.13
2018-04-30T07:02:06.664Z,13.63
2018-04-30T07:04:34.133Z,10.60
2018-04-30T07:07:01.583Z,10.70
2018-04-30T07:09:29.163Z,8.67
2018-04-30T07:11:56.515Z,6.70
2018-04-30T07:14:23.977Z,9.07
2018-04-30T07:16:51.417Z,6.43
2018-04-30T07:19:18.978Z,5.80
2018-04-30T07:21:46.481Z,4.77
2018-04-30T07:24:13.927Z,6.33
2018-04-30T07:26:41.368Z,5.37
2018-04-30T07:29:08.811Z,5.07
2018-04-30T07:31:36.310Z,7.63
2018-04-30T07:34:03.763Z,7.40
2018-04-30T07:36:31.198Z,7.47
2018-04-30T07:38:58.765Z,9.10
2018-04-30T07:41:26.135Z,9.40
2018-04-30T07:43:53.621Z,10.87
2018-04-30T07:46:21.179Z,5.97
2018-04-30T07:48:48.646Z,5.40
2018-04-30T07:51:16.098Z,4.23
2018-04-30T07:53:43.549Z,3.40
2018-04-30T07:56:11.044Z,3.10
2018-04-30T07:58:38.597Z,2.53
2018-04-30T08:01:06.054Z,3.37
2018-04-30T08:03:33.534Z,2.33
2018-04-30T08:06:02.515Z,2.20
2018-04-30T08:08:30.050Z,2.20
2018-04-30T08:10:57.470Z,1.87
2018-04-30T08:13:24.910Z,1.93
2018-04-30T08:15:52.348Z,2.23
2018-04-30T08:18:19.913Z,1.70
2018-04-30T08:20:47.343Z,2.13
2018-04-30T08:23:14.854Z,2.00
2018-04-30T08:25:42.291Z,1.90
2018-04-30T08:28:09.743Z,3.93
2018-04-30T08:30:37.173Z,3.20
2018-04-30T08:33:05.441Z,2.97
2018-04-30T08:35:34.387Z,4.93
2018-04-30T08:38:01.938Z,2.33
2018-04-30T08:40:29.400Z,3.60
2018-04-30T08:42:56.839Z,3.20
2018-04-30T08:45:25.071Z,3.43
2018-04-30T08:47:52.506Z,3.70
2018-04-30T08:50:19.956Z,2.63
2018-04-30T08:52:47.568Z,2.43
2018-04-30T08:55:15.011Z,3.70
2018-04-30T08:57:42.480Z,2.60
2018-04-30T09:00:09.906Z,2.60
2018-04-30T09:02:38.308Z,3.57
2018-04-30T09:05:06.042Z,3.17
2018-04-30T09:07:33.546Z,3.80
2018-04-30T09:10:00.995Z,3.20
2018-04-30T09:12:28.435Z,3.30
2018-04-30T09:14:55.981Z,13.67
2018-04-30T09:17:23.473Z,8.40
2018-04-30T09:19:51.036Z,2.43
2018-04-30T09:22:18.457Z,2.53
2018-04-30T09:24:46.682Z,3.90
2018-04-30T09:27:14.167Z,3.87
2018-04-30T09:29:41.623Z,4.40
2018-04-30T09:32:09.051Z,3.00
2018-04-30T09:34:36.551Z,4.27
2018-04-30T09:37:03.990Z,2.50
2018-04-30T09:39:31.448Z,3.00
2018-04-30T09:41:58.903Z,2.50
2018-04-30T09:44:26.342Z,3.17
2018-04-30T09:46:54.540Z,6.50
2018-04-30T09:49:22.032Z,4.73
2018-04-30T09:51:49.471Z,3.03
2018-04-30T09:54:16.923Z,3.97
2018-04-30T09:56:44.382Z,2.40
2018-04-30T09:59:11.826Z,5.63
2018-04-30T10:01:40.031Z,6.30
2018-04-30T10:04:07.524Z,2.70
2018-04-30T10:06:34.983Z,6.53
2018-04-30T10:09:02.447Z,2.67
2018-04-30T10:11:29.883Z,2.87
2018-04-30T10:13:57.335Z,2.40
2018-04-30T10:16:24.822Z,2.77
2018-04-30T10:18:52.275Z,4.90
2018-04-30T10:21:19.747Z,3.67
2018-04-30T10:23:47.240Z,2.03
2018-04-30T10:26:14.656Z,1.87
2018-04-30T10:28:42.103Z,3.17
2018-04-30T10:31:09.548Z,4.63
2018-04-30T10:33:36.994Z,2.00
2018-04-30T10:36:04.435Z,1.50
2018-04-30T10:38:31.861Z,2.40
2018-04-30T10:40:59.310Z,1.70
2018-04-30T10:43:26.748Z,3.50
2018-04-30T10:45:54.975Z,2.60
2018-04-30T10:48:22.436Z,2.70
2018-04-30T10:50:49.899Z,1.93
2018-04-30T10:53:17.363Z,1.93
2018-04-30T10:55:44.823Z,1.67
2018-04-30T10:58:12.260Z,2.90
2018-04-30T11:00:39.699Z,2.27
2018-04-30T11:03:07.898Z,2.30
2018-04-30T11:05:35.337Z,1.60
2018-04-30T11:08:02.837Z,2.50
2018-04-30T11:10:30.315Z,1.70
2018-04-30T11:12:57.759Z,1.30
2018-04-30T11:15:25.236Z,1.03
2018-04-30T11:17:52.666Z,1.40
2018-04-30T11:20:20.146Z,2.57
2018-04-30T11:22:47.577Z,2.03
2018-04-30T11:25:15.066Z,1.37
2018-04-30T11:27:42.571Z,2.20
2018-04-30T11:30:09.951Z,1.20
2018-04-30T11:32:38.151Z,2.40
2018-04-30T11:35:05.612Z,2.10
2018-04-30T11:37:33.043Z,2.00
2018-04-30T11:40:01.349Z,1.90
2018-04-30T11:42:28.705Z,1.37
2018-04-30T11:44:56.161Z,3.63
2018-04-30T11:47:23.665Z,1.10
2018-04-30T11:49:51.139Z,1.40
2018-04-30T11:52:18.579Z,1.87
2018-04-30T11:54:46.088Z,7.50
2018-04-30T11:57:14.313Z,2.07
2018-04-30T11:59:41.751Z,1.40
2018-04-30T12:02:09.203Z,2.23
2018-04-30T12:04:36.711Z,3.80
2018-04-30T12:07:04.174Z,4.77
2018-04-30T12:09:31.606Z,3.67
2018-04-30T12:11:59.055Z,4.30
2018-04-30T12:14:26.489Z,6.43
2018-04-30T12:16:54.730Z,3.67
2018-04-30T12:19:22.166Z,1.50
2018-04-30T12:21:49.620Z,1.60
2018-04-30T12:24:17.119Z,1.33
2018-04-30T12:26:44.563Z,1.50
2018-04-30T12:29:11.994Z,3.10
2018-04-30T12:31:39.437Z,0.97
2018-04-30T12:34:07.674Z,1.40
2018-04-30T12:36:35.138Z,4.00
2018-04-30T12:39:02.576Z,1.00
2018-04-30T12:41:30.068Z,1.87
2018-04-30T12:43:57.527Z,1.73
2018-04-30T12:46:24.983Z,1.07
2018-04-30T12:48:52.423Z,1.10
2018-04-30T12:51:19.906Z,1.27
2018-04-30T12:53:47.383Z,2.90
2018-04-30T12:56:14.929Z,1.23
2018-04-30T12:58:42.379Z,1.23
2018-04-30T13:01:09.828Z,1.73
2018-04-30T13:03:37.265Z,1.00
2018-04-30T13:06:05.499Z,4.13
2018-04-30T13:08:32.969Z,1.10
2018-04-30T13:11:00.468Z,3.13
2018-04-30T13:13:28.694Z,1.37
2018-04-30T13:15:56.137Z,0.70
2018-04-30T13:18:23.599Z,3.73
2018-04-30T13:20:51.058Z,0.90
2018-04-30T13:23:18.504Z,0.60
2018-04-30T13:25:46.709Z,1.53
2018-04-30T13:28:14.191Z,2.83
2018-04-30T13:30:41.645Z,0.80
2018-04-30T13:33:09.082Z,2.63
2018-04-30T13:35:36.519Z,0.80
2018-04-30T13:38:04.753Z,0.60
2018-04-30T13:40:32.177Z,1.27
2018-04-30T13:42:59.655Z,0.70
2018-04-30T13:45:27.112Z,1.03
2018-04-30T13:47:54.553Z,4.30
2018-04-30T13:50:22.002Z,2.30
2018-04-30T13:52:50.304Z,2.90
2018-04-30T13:55:17.752Z,0.60
2018-04-30T13:57:45.953Z,3.80
2018-04-30T14:00:13.382Z,2.00
2018-04-30T14:02:41.595Z,2.83
2018-04-30T14:05:09.079Z,0.70
2018-04-30T14:07:36.522Z,0.93
2018-04-30T14:10:03.999Z,1.37
2018-04-30T14:12:31.568Z,3.10
2018-04-30T14:14:59.024Z,1.07
2018-04-30T14:17:26.483Z,1.97
2018-04-30T14:19:53.949Z,0.77
2018-04-30T14:22:21.498Z,2.57
2018-04-30T14:24:48.939Z,0.60
2018-04-30T14:27:16.422Z,0.90
2018-04-30T14:29:43.923Z,1.07
2018-04-30T14:32:11.383Z,2.07
2018-04-30T14:34:38.919Z,1.37
2018-04-30T14:37:06.370Z,0.60
2018-04-30T14:39:33.822Z,0.60
2018-04-30T14:42:01.275Z,2.20
2018-04-30T14:44:28.769Z,1.50
2018-04-30T14:46:56.228Z,1.30
2018-04-30T14:49:23.726Z,6.73
2018-04-30T14:51:51.932Z,0.60
2018-04-30T14:54:19.438Z,0.90
2018-04-30T14:56:46.971Z,1.07
2018-04-30T14:59:15.911Z,1.57
2018-04-30T15:01:43.347Z,0.93
2018-04-30T15:04:10.802Z,0.80
2018-04-30T15:06:38.273Z,1.00
2018-04-30T15:09:05.710Z,1.77
2018-04-30T15:11:33.207Z,0.87
2018-04-30T15:14:00.746Z,0.63
2018-04-30T15:16:28.192Z,1.10
2018-04-30T15:18:55.662Z,1.13
2018-04-30T15:21:23.138Z,3.07
2018-04-30T15:23:50.630Z,0.80
2018-04-30T15:26:18.172Z,1.20
2018-04-30T15:28:45.606Z,1.10
2018-04-30T15:31:13.087Z,1.43
2018-04-30T15:33:41.261Z,1.17
2018-04-30T15:36:08.696Z,1.17
2018-04-30T15:38:36.191Z,0.87
2018-04-30T15:41:03.634Z,0.90
2018-04-30T15:43:31.067Z,3.33
2018-04-30T15:45:59.293Z,2.83
2018-04-30T15:48:26.751Z,1.53
2018-04-30T15:50:54.214Z,3.23
2018-04-30T15:53:21.662Z,0.63
2018-04-30T15:55:49.106Z,0.73
2018-04-30T15:58:16.551Z,0.60
2018-04-30T16:00:44.105Z,0.90
2018-04-30T16:03:12.339Z,0.83
2018-04-30T16:05:39.872Z,0.80
2018-04-30T16:08:07.353Z,0.70
2018-04-30T16:10:34.794Z,2.80
2018-04-30T16:13:02.258Z,3.23
2018-04-30T16:15:29.742Z,1.47
2018-04-30T16:17:57.194Z,0.53
2018-04-30T16:20:24.732Z,0.70
2018-04-30T16:22:52.123Z,0.60
2018-04-30T16:25:19.554Z,0.87
2018-04-30T16:27:46.995Z,1.67
2018-04-30T16:30:15.202Z,3.33
2018-04-30T16:32:42.713Z,2.90
2018-04-30T16:35:10.914Z,1.47
2018-04-30T16:37:39.129Z,1.17
2018-04-30T16:40:06.582Z,0.80
2018-04-30T16:42:34.043Z,3.03
2018-04-30T16:45:01.588Z,0.70
2018-04-30T16:47:28.966Z,1.83
2018-04-30T16:49:56.418Z,0.60
2018-04-30T16:52:24.641Z,2.00
2018-04-30T16:54:52.094Z,1.00
2018-04-30T16:57:19.567Z,1.30
2018-04-30T16:59:47.019Z,2.20
2018-04-30T17:02:14.458Z,0.70
2018-04-30T17:04:41.898Z,2.97
2018-04-30T17:07:09.362Z,0.60
2018-04-30T17:09:36.871Z,0.90
2018-04-30T17:12:04.437Z,4.80
2018-04-30T17:14:31.909Z,0.60
2018-04-30T17:16:59.330Z,0.87
2018-04-30T17:19:26.780Z,0.97
2018-04-30T17:21:54.210Z,2.10
2018-04-30T17:24:22.443Z,1.20
2018-04-30T17:26:49.933Z,1.13
2018-04-30T17:29:17.460Z,0.70
2018-04-30T17:31:44.915Z,3.90
2018-04-30T17:34:12.346Z,4.40
2018-04-30T17:36:40.579Z,1.30
2018-04-30T17:39:08.051Z,3.40
2018-04-30T17:41:35.551Z,3.03
2018-04-30T17:44:03.765Z,3.23
2018-04-30T17:46:31.191Z,1.70
2018-04-30T17:48:59.399Z,0.80
2018-04-30T17:51:26.825Z,1.23
2018-04-30T17:53:55.072Z,1.07
2018-04-30T17:56:22.510Z,2.93
2018-04-30T17:58:49.982Z,1.30
2018-04-30T18:01:17.432Z,5.07
2018-04-30T18:03:44.872Z,2.10
2018-04-30T18:06:12.370Z,0.90
2018-04-30T18:08:39.906Z,2.17
2018-04-30T18:11:07.391Z,2.83
2018-04-30T18:13:34.863Z,1.53
2018-04-30T18:16:02.316Z,1.80
2018-04-30T18:18:29.778Z,3.47
2018-04-30T18:20:57.218Z,1.20
2018-04-30T18:23:24.698Z,2.10
2018-04-30T18:25:52.234Z,4.90
2018-04-30T18:28:19.670Z,1.50
2018-04-30T18:30:47.879Z,1.23
2018-04-30T18:33:15.319Z,2.60
2018-04-30T18:35:43.531Z,1.10
2018-04-30T18:38:11.077Z,2.40
2018-04-30T18:40:38.505Z,1.73
2018-04-30T18:43:06.715Z,0.97
2018-04-30T18:45:34.158Z,4.60
2018-04-30T18:48:01.591Z,2.37
2018-04-30T18:50:29.062Z,1.83
2018-04-30T18:52:56.515Z,1.23
2018-04-30T18:55:23.960Z,0.93
2018-04-30T18:57:51.450Z,1.83
2018-04-30T19:00:19.700Z,1.27
2018-04-30T19:02:47.145Z,0.70
2018-04-30T19:05:14.685Z,7.70
2018-04-30T19:07:42.175Z,1.10
2018-04-30T19:10:09.630Z,5.00
2018-04-30T19:12:37.074Z,1.27
2018-04-30T19:15:04.512Z,0.90
2018-04-30T19:17:32.746Z,2.40
2018-04-30T19:20:00.311Z,7.50
2018-04-30T19:22:27.780Z,2.93
2018-04-30T19:24:55.238Z,0.80
2018-04-30T19:27:22.759Z,0.70
2018-04-30T19:29:50.217Z,3.10
2018-04-30T19:32:17.724Z,1.40
2018-04-30T19:34:45.176Z,1.73
2018-04-30T19:37:12.754Z,0.77
2018-04-30T19:39:40.154Z,1.00
2018-04-30T19:42:07.639Z,0.90
2018-04-30T19:44:35.083Z,1.03
2018-04-30T19:47:02.536Z,2.47
2018-04-30T19:49:30.730Z,1.67
2018-04-30T19:51:58.226Z,1.67
2018-04-30T19:54:25.676Z,3.13
2018-04-30T19:56:53.218Z,3.63
2018-04-30T19:59:20.638Z,0.80
2018-04-30T20:01:48.880Z,4.33
2018-04-30T20:04:16.331Z,2.50
2018-04-30T20:06:43.815Z,0.70
2018-04-30T20:09:11.446Z,0.83
2018-04-30T20:11:38.890Z,1.10
2018-04-30T20:14:06.390Z,1.20
2018-04-30T20:16:33.863Z,0.90
2018-04-30T20:19:01.312Z,0.77
2018-04-30T20:21:28.856Z,0.70
2018-04-30T20:23:56.290Z,1.13
2018-04-30T20:26:24.498Z,1.57
2018-04-30T20:28:51.959Z,2.33
2018-04-30T20:31:19.406Z,1.43
2018-04-30T20:33:46.838Z,2.23
2018-04-30T20:36:14.278Z,0.67
2018-04-30T20:38:41.723Z,0.80
2018-04-30T20:41:09.164Z,0.90
2018-04-30T20:43:36.594Z,0.60
2018-04-30T20:46:04.895Z,0.70
2018-04-30T20:48:32.365Z,0.70
2018-04-30T20:50:59.883Z,1.73
2018-04-30T20:53:27.319Z,1.63
2018-04-30T20:55:54.880Z,0.80
2018-04-30T20:58:22.302Z,1.63
2018-04-30T21:00:49.755Z,8.40
2018-04-30T21:03:17.983Z,0.80
2018-04-30T21:05:45.419Z,0.70
2018-04-30T21:08:12.858Z,1.33
2018-04-30T21:10:40.290Z,1.27
2018-04-30T21:13:07.839Z,1.10
2018-04-30T21:15:35.276Z,0.70
2018-04-30T21:18:02.727Z,0.90
2018-04-30T21:20:30.158Z,2.00
2018-04-30T21:22:58.577Z,4.97
2018-04-30T21:25:26.021Z,1.47
2018-04-30T21:27:53.458Z,2.13
2018-04-30T21:30:21.654Z,1.00
2018-04-30T21:32:49.098Z,1.30
2018-04-30T21:35:17.294Z,1.30
2018-04-30T21:37:44.782Z,1.70
2018-04-30T21:40:12.370Z,1.60
2018-04-30T21:42:39.763Z,1.57
2018-04-30T21:45:07.957Z,1.60
2018-04-30T21:47:35.499Z,1.60
2018-04-30T21:50:02.888Z,1.50
2018-04-30T21:52:30.326Z,6.57
2018-04-30T21:54:58.586Z,2.23
2018-04-30T21:57:26.008Z,2.40
2018-04-30T21:59:53.484Z,3.17
2018-04-30T22:02:20.927Z,2.73
2018-04-30T22:04:48.367Z,2.60
2018-04-30T22:07:15.863Z,2.23
2018-04-30T22:09:43.298Z,3.43
2018-04-30T22:12:10.868Z,3.13
2018-04-30T22:14:39.142Z,3.10
2018-04-30T22:17:06.574Z,3.50
2018-04-30T22:19:34.786Z,2.60
2018-04-30T22:22:02.215Z,2.83
2018-04-30T22:24:30.446Z,3.50
2018-04-30T22:26:57.883Z,2.37
2018-04-30T22:29:25.327Z,4.23
2018-04-30T22:31:53.528Z,1.93
2018-04-30T22:34:20.994Z,3.00
2018-04-30T22:36:48.486Z,2.57
2018-04-30T22:39:15.900Z,1.83
2018-04-30T22:41:43.391Z,2.87
2018-04-30T22:44:10.831Z,1.80
2018-04-30T22:46:38.274Z,1.70
2018-04-30T22:49:05.778Z,1.53
2018-04-30T22:51:33.226Z,2.27
2018-04-30T22:54:00.654Z,4.90
2018-04-30T22:56:28.872Z,1.40
2018-04-30T22:58:56.347Z,1.53
2018-04-30T23:01:23.804Z,1.53
2018-04-30T23:03:51.234Z,1.90
2018-04-30T23:06:18.687Z,1.10
2018-04-30T23:08:46.187Z,1.13
2018-04-30T23:11:13.638Z,1.40
2018-04-30T23:13:41.107Z,1.80
2018-04-30T23:16:08.554Z,1.90
2018-04-30T23:18:36.026Z,1.90
2018-04-30T23:21:03.463Z,1.67
2018-04-30T23:23:30.972Z,2.17
2018-04-30T23:25:59.095Z,1.50
2018-04-30T23:28:26.627Z,1.73
2018-04-30T23:30:54.046Z,1.90
2018-04-30T23:33:21.514Z,1.80
2018-04-30T23:35:48.983Z,1.80
2018-04-30T23:38:16.434Z,1.60
2018-04-30T23:40:43.900Z,1.77
2018-04-30T23:43:11.346Z,2.03
2018-04-30T23:45:38.778Z,2.50
2018-04-30T23:48:06.259Z,1.80
2018-04-30T23:50:33.743Z,1.87
2018-04-30T23:53:01.192Z,2.03
2018-04-30T23:55:28.667Z,1.70
2018-04-30T23:57:56.111Z,1.93
